In Rescue
 
Open Full Screen Window  High Contrast Mode
Wind Gusting 00 knots
04
July 23, 2019 1:52 AM EDT
Weather Information
Wind Direction
  300 °
Wind Speed
  04 kt (5 mph)
Wind Gust
  00 kt (0 mph)
Altimeter
30.02 in
Visibility
10 SM
Temperature
17° C
63° F
Dewpoint
09° C
48° F
Humidity
59%
Sky Condition
Clear
VFR

METAR KVLL 230552Z AUTO 30004KT 10SM CLR 17/09 A3002 RMK AO2 T01700085

FAA Disclaimer: The data displayed is for advisory purposes only and is not to be used for flight planning or operations.